Time;durP1;ratioP1;P1;durP2;ratioP2;P2;SDS_P1;SDS_P2;PMS_P1;PMS_P2;Temp;Humidity;BMP_temperature;BMP_pressure;BME280_temperature;BME280_humidity;BME280_pressure;Samples;Min_cycle;Max_cycle;Signal;HPM_P1;HPM_P2
2024/01/06 00:01:50;;;;;;;25.80;14.57;;;230.50;2252.80;;;;;;5029486;28;20034;-76
2024/01/06 00:04:16;;;;;;;25.35;14.88;;;230.60;2252.80;;;;;;5030519;28;20045;-77
2024/01/06 00:06:41;;;;;;;27.02;13.95;;;230.60;2252.80;;;;;;5032630;28;20024;-67
2024/01/06 00:09:07;;;;;;;21.15;11.68;;;230.60;2252.80;;;;;;5015964;28;20073;-67
2024/01/06 00:11:33;;;;;;;19.00;10.07;;;230.60;2252.80;;;;;;5030282;28;20045;-69
2024/01/06 00:13:59;;;;;;;19.90;10.68;;;230.60;2252.80;;;;;;5034344;28;20037;-74
2024/01/06 00:16:24;;;;;;;20.23;12.45;;;230.60;2252.80;;;;;;5035374;28;20069;-67
2024/01/06 00:18:50;;;;;;;16.83;9.43;;;230.70;2252.80;;;;;;5035013;28;20036;-81
2024/01/06 00:21:16;;;;;;;20.30;9.85;;;230.70;2252.80;;;;;;5034438;28;20072;-77
2024/01/06 00:23:42;;;;;;;17.40;9.82;;;230.80;2252.80;;;;;;5054524;28;20017;-68
2024/01/06 00:26:10;;;;;;;27.52;15.70;;;230.80;2252.80;;;;;;5031848;28;20024;-67
2024/01/06 00:28:37;;;;;;;33.17;17.00;;;230.80;2252.80;;;;;;5040236;28;20471;-77
2024/01/06 00:31:03;;;;;;;28.55;15.82;;;230.90;2252.80;;;;;;5028514;28;20041;-68
2024/01/06 00:33:28;;;;;;;18.52;10.70;;;230.90;2252.80;;;;;;5032978;28;20107;-77
2024/01/06 00:35:55;;;;;;;15.85;8.75;;;230.90;2252.80;;;;;;5033662;28;20033;-66
2024/01/06 00:38:21;;;;;;;15.45;8.30;;;230.90;2252.80;;;;;;5037351;28;20064;-75
2024/01/06 00:40:47;;;;;;;15.93;9.10;;;230.80;2252.80;;;;;;5033848;28;20041;-76
2024/01/06 00:43:12;;;;;;;17.08;9.25;;;230.80;2252.80;;;;;;5033999;28;20025;-72
2024/01/06 00:45:38;;;;;;;16.13;7.75;;;230.80;2252.80;;;;;;5024451;28;20037;-77
2024/01/06 00:48:04;;;;;;;15.55;7.90;;;230.80;2252.80;;;;;;5034170;28;20026;-80
2024/01/06 00:50:30;;;;;;;14.70;7.97;;;230.80;2252.80;;;;;;5029752;28;20041;-82
2024/01/06 00:52:56;;;;;;;17.23;8.18;;;230.70;2252.80;;;;;;5032927;28;20113;-71
2024/01/06 00:55:22;;;;;;;16.88;8.10;;;230.70;2252.80;;;;;;5037390;28;20324;-77
2024/01/06 00:57:48;;;;;;;14.27;7.65;;;230.70;2252.80;;;;;;5038660;28;20072;-80
2024/01/06 01:00:15;;;;;;;15.50;8.05;;;230.70;2252.80;;;;;;5033147;28;20022;-74
2024/01/06 01:02:41;;;;;;;18.77;10.85;;;230.80;2252.80;;;;;;5028722;28;20151;-75
2024/01/06 01:05:09;;;;;;;18.70;11.65;;;230.80;2252.80;;;;;;5035643;28;20535;-71
2024/01/06 01:07:35;;;;;;;16.63;10.52;;;230.80;2252.80;;;;;;5025405;28;20053;-73
2024/01/06 01:10:01;;;;;;;17.95;11.35;;;230.80;2252.80;;;;;;5030071;28;20510;-71
2024/01/06 01:12:27;;;;;;;16.73;10.55;;;230.90;2252.80;;;;;;5030716;28;20028;-77
2024/01/06 01:14:53;;;;;;;15.60;9.30;;;230.90;2252.80;;;;;;5032909;28;20391;-72
2024/01/06 01:17:18;;;;;;;19.92;9.45;;;230.90;2252.80;;;;;;5027945;28;20037;-75
2024/01/06 01:19:45;;;;;;;18.23;9.60;;;230.90;2252.80;;;;;;5013130;28;20357;-78
2024/01/06 01:22:11;;;;;;;16.50;9.93;;;230.90;2252.80;;;;;;5032458;28;20021;-76
2024/01/06 01:24:40;;;;;;;17.58;9.95;;;230.90;2252.80;;;;;;5032232;28;20099;-74
2024/01/06 01:27:05;;;;;;;17.05;9.68;;;230.90;2252.80;;;;;;5029607;28;20049;-72
2024/01/06 01:29:31;;;;;;;15.18;8.40;;;230.90;2252.80;;;;;;5033947;28;20022;-78
2024/01/06 01:31:57;;;;;;;18.88;8.88;;;230.90;2252.80;;;;;;5036328;28;20022;-73
2024/01/06 01:34:23;;;;;;;15.75;9.30;;;231.00;2252.80;;;;;;5028755;28;20034;-72
2024/01/06 01:36:48;;;;;;;16.52;9.23;;;231.00;2252.80;;;;;;5031923;28;20495;-74
2024/01/06 01:39:14;;;;;;;16.88;9.75;;;231.00;2252.80;;;;;;5032654;28;20017;-69
2024/01/06 01:41:40;;;;;;;20.88;11.90;;;231.00;2252.80;;;;;;5030166;28;20172;-75
2024/01/06 01:44:06;;;;;;;22.08;12.43;;;231.00;2252.80;;;;;;5034590;28;20105;-67
2024/01/06 01:46:32;;;;;;;19.67;11.40;;;230.90;2252.80;;;;;;5034135;28;20507;-71
2024/01/06 01:49:00;;;;;;;19.70;10.48;;;230.80;2252.80;;;;;;5033169;28;20025;-71
2024/01/06 01:51:35;;;;;;;18.60;9.23;;;230.80;2252.80;;;;;;5033876;28;20087;-76
2024/01/06 01:54:03;;;;;;;17.95;8.90;;;230.80;2252.80;;;;;;5032789;28;20407;-75
2024/01/06 01:56:34;;;;;;;15.25;8.60;;;230.80;2252.80;;;;;;5027423;28;20045;-68
2024/01/06 01:59:04;;;;;;;14.30;8.48;;;230.80;2252.80;;;;;;5022781;28;20588;-73
2024/01/06 02:01:30;;;;;;;15.85;8.27;;;230.70;2252.80;;;;;;5024432;28;20032;-75
2024/01/06 02:03:57;;;;;;;16.30;8.88;;;230.70;2252.80;;;;;;5030286;28;20053;-73
2024/01/06 02:06:22;;;;;;;17.52;9.15;;;230.60;2252.80;;;;;;5029597;28;20021;-78
2024/01/06 02:08:48;;;;;;;19.15;9.50;;;230.60;2252.80;;;;;;5029683;28;20486;-76
2024/01/06 02:11:14;;;;;;;15.85;9.35;;;230.50;2252.80;;;;;;5030244;28;20029;-80
2024/01/06 02:13:42;;;;;;;19.13;9.25;;;230.50;2252.80;;;;;;5030409;28;20418;-74
2024/01/06 02:16:08;;;;;;;16.95;9.38;;;230.50;2252.80;;;;;;5027824;28;20044;-79
2024/01/06 02:18:34;;;;;;;21.52;10.70;;;230.50;2252.80;;;;;;5027152;28;20049;-78
2024/01/06 02:21:02;;;;;;;19.25;10.95;;;230.50;2252.80;;;;;;5031397;28;20029;-79
2024/01/06 02:23:30;;;;;;;19.20;10.85;;;230.50;2252.80;;;;;;5030956;28;20116;-79
2024/01/06 02:25:57;;;;;;;21.33;11.30;;;230.50;2252.80;;;;;;5029241;28;20030;-80
2024/01/06 02:28:22;;;;;;;19.13;11.35;;;230.50;2252.80;;;;;;5039457;28;20029;-79
2024/01/06 02:30:51;;;;;;;20.88;11.00;;;230.50;2252.80;;;;;;5036246;28;20140;-79
2024/01/06 02:33:19;;;;;;;19.75;11.73;;;230.50;2252.80;;;;;;5034468;28;20025;-79
2024/01/06 02:35:48;;;;;;;21.58;12.15;;;230.50;2252.80;;;;;;5032272;28;20028;-76
2024/01/06 02:38:14;;;;;;;22.63;11.98;;;230.50;2252.80;;;;;;5037574;28;20045;-77
2024/01/06 02:40:39;;;;;;;19.17;11.90;;;230.60;2252.80;;;;;;5033545;28;20494;-74
2024/01/06 02:43:05;;;;;;;20.65;11.85;;;230.60;2252.80;;;;;;5030261;28;20025;-71
2024/01/06 02:45:32;;;;;;;22.15;12.25;;;230.60;2252.80;;;;;;5034622;28;20084;-67
2024/01/06 02:47:58;;;;;;;21.83;13.02;;;230.60;2252.80;;;;;;5026981;28;20400;-68
2024/01/06 02:50:23;;;;;;;19.75;12.27;;;230.60;2252.80;;;;;;5033543;28;20044;-67
2024/01/06 02:52:49;;;;;;;19.20;11.98;;;230.60;2252.80;;;;;;5024910;28;20029;-68
2024/01/06 02:55:18;;;;;;;22.33;12.98;;;230.70;2252.80;;;;;;5028701;28;20029;-68
2024/01/06 02:57:46;;;;;;;23.60;13.25;;;230.70;2252.80;;;;;;5031109;28;20148;-67
2024/01/06 03:00:15;;;;;;;22.38;13.10;;;230.70;2252.80;;;;;;5029401;28;20053;-67
2024/01/06 03:02:42;;;;;;;23.25;13.05;;;230.80;2252.80;;;;;;5029613;28;20103;-71
2024/01/06 03:05:09;;;;;;;26.38;13.90;;;230.80;2252.80;;;;;;5031580;28;20017;-71
2024/01/06 03:07:35;;;;;;;23.75;13.80;;;230.80;2252.80;;;;;;5032667;28;20029;-67
2024/01/06 03:10:00;;;;;;;22.75;13.77;;;230.80;2252.80;;;;;;5023296;28;20103;-66
2024/01/06 03:12:29;;;;;;;25.95;14.18;;;230.80;2252.80;;;;;;5030410;28;20040;-67
2024/01/06 03:14:55;;;;;;;22.88;14.35;;;230.70;2252.80;;;;;;5029245;28;20496;-67
2024/01/06 03:17:20;;;;;;;26.40;15.20;;;230.70;2252.80;;;;;;5032568;28;20034;-67
2024/01/06 03:19:46;;;;;;;30.23;15.95;;;230.60;2252.80;;;;;;5049739;28;20572;-68
2024/01/06 03:22:12;;;;;;;25.67;16.20;;;230.60;2252.80;;;;;;5051714;28;20035;-66
2024/01/06 03:24:41;;;;;;;30.83;16.40;;;230.50;2252.80;;;;;;5051815;28;20040;-67
2024/01/06 03:27:06;;;;;;;32.95;17.40;;;230.50;2252.80;;;;;;5029090;28;20376;-66
2024/01/06 03:29:32;;;;;;;26.73;17.52;;;230.50;2252.80;;;;;;5035949;28;20032;-70
2024/01/06 03:32:00;;;;;;;30.48;17.83;;;230.50;2252.80;;;;;;5031576;28;20055;-67
2024/01/06 03:34:26;;;;;;;31.08;17.38;;;230.50;2252.80;;;;;;5029305;28;20503;-78
2024/01/06 03:36:52;;;;;;;32.67;17.30;;;230.40;2252.80;;;;;;5025689;28;20041;-75
2024/01/06 03:39:17;;;;;;;28.55;17.50;;;230.40;2252.80;;;;;;5029344;28;20025;-79
2024/01/06 03:41:46;;;;;;;26.98;16.60;;;205.70;2252.80;;;;;;5031908;28;20025;-75
2024/01/06 03:44:11;;;;;;;25.63;15.90;;;205.70;2252.80;;;;;;5033407;28;20049;-76
2024/01/06 03:46:37;;;;;;;27.77;16.17;;;205.70;2252.80;;;;;;5034388;28;20597;-75
2024/01/06 03:49:03;;;;;;;24.92;15.82;;;205.70;2252.80;;;;;;5034433;28;20022;-76
2024/01/06 03:51:29;;;;;;;25.23;16.05;;;205.70;2252.80;;;;;;5033732;28;20037;-78
2024/01/06 03:53:54;;;;;;;28.55;15.23;;;205.70;2252.80;;;;;;5028830;28;20029;-76
2024/01/06 03:56:20;;;;;;;27.40;15.43;;;205.70;2252.80;;;;;;5030056;28;20033;-71
2024/01/06 03:58:46;;;;;;;24.92;14.98;;;205.70;2252.80;;;;;;5031094;28;20017;-78
2024/01/06 04:01:12;;;;;;;26.30;15.70;;;205.70;2252.80;;;;;;5037154;28;20419;-72
2024/01/06 04:03:41;;;;;;;27.02;15.07;;;205.70;2252.80;;;;;;5038247;28;20041;-67
2024/01/06 04:06:07;;;;;;;24.33;14.30;;;205.70;2252.80;;;;;;5038249;28;20403;-79
2024/01/06 04:08:33;;;;;;;25.27;15.13;;;205.60;2252.80;;;;;;5038344;28;20462;-76
2024/01/06 04:14:21;;;;;;;26.92;14.73;;;205.60;2252.80;;;;;;5038736;28;20093;-78
2024/01/06 04:16:47;;;;;;;27.48;14.60;;;205.60;2252.80;;;;;;5037768;28;20472;-77
2024/01/06 04:19:13;;;;;;;22.77;14.38;;;205.60;2252.80;;;;;;5038754;28;20056;-77
2024/01/06 04:21:39;;;;;;;23.55;14.50;;;205.60;2252.80;;;;;;5037613;28;20519;-80
2024/01/06 04:24:05;;;;;;;29.38;14.27;;;205.50;2252.80;;;;;;5019828;28;20120;-80
2024/01/06 04:29:53;;;;;;;25.15;13.90;;;205.40;2252.80;;;;;;5037981;28;20036;-80
2024/01/06 04:32:19;;;;;;;25.88;13.68;;;205.40;2252.80;;;;;;5037526;28;20440;-80
2024/01/06 04:34:45;;;;;;;26.13;14.48;;;205.30;2252.80;;;;;;5037634;28;20025;-80
2024/01/06 04:37:11;;;;;;;22.85;14.70;;;205.30;2252.80;;;;;;5037697;28;20088;-78
2024/01/06 04:39:38;;;;;;;23.52;14.13;;;205.30;2252.80;;;;;;5037003;28;20033;-78
2024/01/06 04:42:04;;;;;;;27.25;15.00;;;205.30;2252.80;;;;;;5020481;28;20535;-70
2024/01/06 04:44:30;;;;;;;25.70;14.35;;;205.30;2252.80;;;;;;5038035;28;20542;-74
2024/01/06 04:46:57;;;;;;;23.58;13.75;;;205.30;2252.80;;;;;;5037407;28;20482;-79
2024/01/06 04:49:23;;;;;;;23.35;13.43;;;205.30;2252.80;;;;;;5037981;28;20471;-67
2024/01/06 04:51:49;;;;;;;23.70;14.00;;;205.30;2252.80;;;;;;5037925;28;20022;-75
2024/01/06 04:54:15;;;;;;;21.70;13.07;;;205.40;2252.80;;;;;;5037882;28;20340;-71
2024/01/06 05:00:04;;;;;;;28.17;14.95;;;205.30;2252.80;;;;;;5037236;28;20036;-75
2024/01/06 05:02:30;;;;;;;25.38;14.50;;;205.40;2252.80;;;;;;5037208;28;20468;-79
2024/01/06 05:04:56;;;;;;;22.08;14.00;;;205.30;2252.80;;;;;;5037312;28;20464;-69
2024/01/06 05:07:22;;;;;;;25.35;13.50;;;205.30;2252.80;;;;;;5036849;28;20113;-73
2024/01/06 05:09:48;;;;;;;21.75;12.77;;;205.30;2252.80;;;;;;5002797;28;20029;-78
2024/01/06 05:12:14;;;;;;;25.55;13.50;;;205.30;2252.80;;;;;;5036586;28;20009;-79
2024/01/06 05:14:40;;;;;;;24.85;12.95;;;205.20;2252.80;;;;;;5036805;28;20435;-79
2024/01/06 05:17:06;;;;;;;21.23;13.32;;;205.30;2252.80;;;;;;5036873;28;20065;-75
2024/01/06 05:19:36;;;;;;;22.38;13.05;;;205.30;2252.80;;;;;;5036651;28;20021;-77
2024/01/06 05:22:02;;;;;;;22.38;12.68;;;205.30;2252.80;;;;;;5037516;28;20518;-74
2024/01/06 05:24:28;;;;;;;21.77;12.40;;;205.30;2252.80;;;;;;5019108;28;20504;-75
2024/01/06 05:30:16;;;;;;;19.25;12.23;;;205.30;2252.80;;;;;;5036639;28;20057;-76
2024/01/06 05:32:42;;;;;;;20.20;12.00;;;205.40;2252.80;;;;;;5036314;28;20018;-72
2024/01/06 05:35:09;;;;;;;18.98;12.30;;;205.40;2252.80;;;;;;5036976;28;20036;-77
2024/01/06 05:37:35;;;;;;;21.85;12.07;;;205.40;2252.80;;;;;;5036251;28;20488;-77
2024/01/06 05:40:03;;;;;;;20.58;12.10;;;205.40;2252.80;;;;;;5036747;28;20471;-79
2024/01/06 05:42:29;;;;;;;23.55;12.13;;;205.40;2252.80;;;;;;5036444;28;20444;-77
2024/01/06 05:44:55;;;;;;;21.50;11.88;;;205.40;2252.80;;;;;;5035859;28;20515;-71
2024/01/06 05:47:21;;;;;;;19.70;12.40;;;205.40;2252.80;;;;;;5036766;28;20467;-78
2024/01/06 05:49:48;;;;;;;20.08;11.68;;;205.30;2252.80;;;;;;5035810;28;20100;-75
2024/01/06 05:52:15;;;;;;;20.05;12.15;;;205.30;2252.80;;;;;;5035792;28;20033;-73
2024/01/06 05:54:42;;;;;;;23.42;12.45;;;205.20;2252.80;;;;;;5035926;28;20484;-78
2024/01/06 06:00:32;;;;;;;24.95;12.60;;;205.10;2252.80;;;;;;5035932;28;20112;-77
2024/01/06 06:02:58;;;;;;;21.95;12.55;;;205.10;2252.80;;;;;;5035511;28;20538;-73
2024/01/06 06:05:24;;;;;;;20.73;12.10;;;205.10;2252.80;;;;;;5034929;28;20033;-73
2024/01/06 06:07:50;;;;;;;20.95;11.60;;;205.20;2252.80;;;;;;5035750;28;20029;-78
2024/01/06 06:16:42;;;;;;;21.80;12.23;;;205.30;2252.80;;;;;;4974554;28;20050;-75
2024/01/06 06:19:08;;;;;;;40.72;19.33;;;205.30;2252.80;;;;;;4974752;28;20073;-79
2024/01/06 06:21:34;;;;;;;97.10;37.08;;;205.40;2252.80;;;;;;4975065;28;20031;-76
2024/01/06 06:24:00;;;;;;;63.88;26.25;;;205.40;2252.80;;;;;;4975339;28;20481;-69
2024/01/06 06:26:28;;;;;;;43.83;20.88;;;205.50;2252.80;;;;;;4975149;28;20035;-66
2024/01/06 06:28:54;;;;;;;32.78;17.77;;;205.50;2252.80;;;;;;4974242;28;20492;-73
2024/01/06 06:31:20;;;;;;;26.15;15.40;;;205.50;2252.80;;;;;;4974739;28;20482;-75
2024/01/06 06:33:46;;;;;;;22.65;12.90;;;205.50;2252.80;;;;;;4974852;28;20102;-70
2024/01/06 06:36:12;;;;;;;23.65;12.00;;;205.60;2252.80;;;;;;4974217;28;20095;-68
2024/01/06 06:38:38;;;;;;;18.17;11.90;;;205.50;2252.80;;;;;;4974758;28;20051;-67
2024/01/06 06:41:04;;;;;;;22.23;12.75;;;205.50;2252.80;;;;;;4974287;28;20029;-66
2024/01/06 06:43:30;;;;;;;22.30;12.52;;;205.50;2252.80;;;;;;4974686;28;20541;-67
2024/01/06 06:45:59;;;;;;;22.42;12.38;;;205.40;2252.80;;;;;;4974267;28;20115;-68
2024/01/06 06:48:25;;;;;;;71.45;32.00;;;205.40;2252.80;;;;;;4974784;28;20027;-67
2024/01/06 06:50:51;;;;;;;28.02;14.68;;;205.40;2252.80;;;;;;5023505;28;20033;-67
2024/01/06 06:53:17;;;;;;;23.92;13.43;;;205.40;2252.80;;;;;;5034743;28;20025;-67
2024/01/06 06:55:43;;;;;;;94.97;41.22;;;205.30;2252.80;;;;;;5034984;28;20013;-67
2024/01/06 06:58:09;;;;;;;438.05;194.93;;;205.40;2252.80;;;;;;5034755;28;20472;-67
2024/01/06 07:00:35;;;;;;;40.33;22.77;;;205.50;2252.80;;;;;;5034654;28;20456;-72
2024/01/06 07:03:01;;;;;;;36.13;17.83;;;205.50;2252.80;;;;;;5017754;28;20456;-68
2024/01/06 07:05:27;;;;;;;25.33;13.77;;;205.40;2252.80;;;;;;5035273;28;20444;-69
2024/01/06 07:07:53;;;;;;;24.30;13.68;;;205.60;2252.80;;;;;;5034779;28;20024;-67
2024/01/06 07:10:19;;;;;;;22.08;12.25;;;205.70;2252.80;;;;;;5034668;28;20080;-67
2024/01/06 07:16:07;;;;;;;20.08;12.82;;;230.40;2252.80;;;;;;5035261;28;20052;-75
2024/01/06 07:18:33;;;;;;;18.13;10.63;;;230.50;2252.80;;;;;;5039166;28;20448;-79
2024/01/06 07:20:59;;;;;;;17.58;10.20;;;230.50;2252.80;;;;;;5039284;28;20037;-80
2024/01/06 07:23:25;;;;;;;17.88;9.30;;;230.60;2252.80;;;;;;5039452;28;20030;-79
2024/01/06 07:25:51;;;;;;;17.42;9.27;;;230.70;2252.80;;;;;;5039067;28;20104;-67
2024/01/06 07:31:39;;;;;;;15.35;9.30;;;230.80;2252.80;;;;;;5038557;28;20140;-68
2024/01/06 07:34:06;;;;;;;15.95;8.40;;;231.00;2252.80;;;;;;5039340;28;20405;-68
2024/01/06 07:36:34;;;;;;;21.67;13.15;;;231.10;2252.80;;;;;;5038472;28;20531;-67
2024/01/06 07:39:03;;;;;;;25.00;13.57;;;231.10;2252.80;;;;;;5038513;28;20405;-68
2024/01/06 07:41:31;;;;;;;24.45;15.27;;;231.20;2252.80;;;;;;5037743;28;20449;-67
2024/01/06 07:43:58;;;;;;;13.60;8.15;;;256.00;2252.80;;;;;;5038506;28;20483;-67
2024/01/06 07:46:24;;;;;;;17.73;9.55;;;256.10;2252.80;;;;;;5038842;28;20453;-67
2024/01/06 07:48:50;;;;;;;14.13;8.30;;;256.10;2252.80;;;;;;5037706;28;20028;-67
2024/01/06 07:51:17;;;;;;;15.68;9.05;;;256.10;2252.80;;;;;;5037977;28;20349;-67
2024/01/06 07:53:42;;;;;;;12.13;6.97;;;256.30;2252.80;;;;;;5038199;28;20460;-67
2024/01/06 07:56:09;;;;;;;14.63;8.25;;;256.40;2252.80;;;;;;5038811;28;20029;-69
2024/01/06 08:01:57;;;;;;;11.85;7.32;;;256.70;2252.80;;;;;;5038113;28;20060;-68
2024/01/06 08:04:26;;;;;;;34.28;24.45;;;281.70;2278.40;;;;;;5037870;28;20045;-80
2024/01/06 08:06:52;;;;;;;33.88;20.50;;;282.30;2278.40;;;;;;5038249;28;20505;-71
2024/01/06 08:09:18;;;;;;;19.40;12.25;;;282.30;2278.40;;;;;;5037348;28;20068;-79
2024/01/06 08:11:48;;;;;;;12.18;7.45;;;282.20;2278.40;;;;;;5038820;28;20049;-79
2024/01/06 08:14:14;;;;;;;17.52;12.15;;;282.10;2278.40;;;;;;5037749;28;20481;-79
2024/01/06 08:16:40;;;;;;;18.20;10.57;;;282.00;2278.40;;;;;;5037508;28;20021;-80
2024/01/06 08:19:06;;;;;;;21.52;11.40;;;282.10;2278.40;;;;;;5037735;28;20075;-79
2024/01/06 08:21:32;;;;;;;10.32;6.30;;;282.10;2278.40;;;;;;5037512;28;20434;-72
2024/01/06 08:23:58;;;;;;;10.27;5.30;;;282.20;2278.40;;;;;;5038056;28;20349;-75
2024/01/06 08:26:24;;;;;;;11.90;6.75;;;282.40;2278.40;;;;;;5038475;28;20054;-80
2024/01/06 08:32:12;;;;;;;20.05;14.00;;;307.20;2304.00;;;;;;5037988;28;20419;-79
2024/01/06 08:34:38;;;;;;;13.07;8.27;;;307.30;2304.00;;;;;;5037681;28;20491;-77
2024/01/06 08:37:04;;;;;;;10.95;6.93;;;307.50;2304.00;;;;;;5037925;28;20065;-80
2024/01/06 08:39:30;;;;;;;20.77;13.45;;;307.80;2304.00;;;;;;5037648;28;20062;-79
2024/01/06 08:41:56;;;;;;;15.07;9.40;;;308.10;2304.00;;;;;;5037770;28;20033;-78
2024/01/06 08:44:23;;;;;;;18.05;12.63;;;333.10;2329.60;;;;;;5037780;28;20488;-81
2024/01/06 08:46:49;;;;;;;19.50;13.13;;;333.60;2329.60;;;;;;5037509;28;20401;-82
2024/01/06 08:49:15;;;;;;;31.73;16.05;;;358.60;2329.60;;;;;;5037035;28;20537;-67
2024/01/06 08:51:41;;;;;;;33.03;21.88;;;384.20;2329.60;;;;;;5036851;28;20413;-80
2024/01/06 08:54:07;;;;;;;22.75;14.05;;;409.60;2355.20;;;;;;5037221;28;20029;-79
2024/01/06 08:56:34;;;;;;;19.52;12.60;;;409.70;2355.20;;;;;;5036842;28;20034;-79
2024/01/06 09:02:22;;;;;;;15.43;9.85;;;384.10;2329.60;;;;;;5037076;28;20120;-81
2024/01/06 09:04:48;;;;;;;9.90;6.57;;;359.10;2329.60;;;;;;5037131;28;20026;-67
2024/01/06 09:07:14;;;;;;;15.13;9.32;;;358.90;2329.60;;;;;;5036732;28;20025;-82
2024/01/06 09:09:40;;;;;;;24.17;14.57;;;358.70;2329.60;;;;;;5036874;28;20025;-74
2024/01/06 09:12:06;;;;;;;15.63;9.85;;;358.60;2329.60;;;;;;5036726;28;20018;-76
2024/01/06 09:14:32;;;;;;;12.48;7.00;;;358.60;2329.60;;;;;;5036466;28;20543;-67
2024/01/06 09:16:58;;;;;;;13.50;6.80;;;358.60;2329.60;;;;;;5037019;28;20053;-67
2024/01/06 09:19:28;;;;;;;11.35;6.90;;;358.60;2329.60;;;;;;5036458;28;20453;-67
2024/01/06 09:21:54;;;;;;;18.75;11.45;;;358.50;2329.60;;;;;;5036497;28;20487;-78
2024/01/06 09:24:21;;;;;;;14.75;7.60;;;358.40;2329.60;;;;;;5036439;28;20401;-73
2024/01/06 09:26:47;;;;;;;22.40;13.30;;;333.70;2329.60;;;;;;5036177;28;20464;-73
2024/01/06 09:32:34;;;;;;;26.45;14.50;;;333.60;2329.60;;;;;;5036576;28;20020;-74
2024/01/06 09:35:00;;;;;;;22.05;12.07;;;333.60;2329.60;;;;;;5036116;28;20536;-80
2024/01/06 09:37:26;;;;;;;31.88;17.33;;;333.60;2329.60;;;;;;5036529;28;20124;-71
2024/01/06 09:39:52;;;;;;;14.23;9.25;;;333.60;2329.60;;;;;;5035901;28;20022;-71
2024/01/06 09:42:19;;;;;;;18.63;10.77;;;333.50;2329.60;;;;;;5036186;28;20025;-67
2024/01/06 09:44:47;;;;;;;19.13;14.57;;;333.50;2329.60;;;;;;5036024;28;20433;-67
2024/01/06 09:47:17;;;;;;;12.95;8.50;;;333.60;2329.60;;;;;;5035863;28;20021;-78
2024/01/06 09:49:50;;;;;;;14.07;9.05;;;333.60;2329.60;;;;;;5036063;28;20372;-73
2024/01/06 09:52:21;;;;;;;17.23;10.07;;;333.60;2329.60;;;;;;5036574;28;20025;-78
2024/01/06 09:54:53;;;;;;;16.00;10.82;;;333.70;2329.60;;;;;;5035976;28;20033;-77
2024/01/06 09:57:23;;;;;;;27.73;19.05;;;333.60;2329.60;;;;;;5035534;28;20488;-77
2024/01/06 10:03:12;;;;;;;13.70;9.38;;;333.70;2329.60;;;;;;5035835;28;20041;-73
2024/01/06 10:05:38;;;;;;;14.55;8.93;;;358.50;2329.60;;;;;;5035692;28;20503;-68
2024/01/06 10:08:04;;;;;;;19.92;11.65;;;358.70;2329.60;;;;;;5035480;28;20029;-78
2024/01/06 10:10:33;;;;;;;35.40;22.58;;;358.80;2329.60;;;;;;5035459;28;20452;-67
2024/01/06 10:12:59;;;;;;;31.25;22.10;;;358.90;2329.60;;;;;;5036195;28;20368;-68
2024/01/06 10:15:25;;;;;;;14.05;8.55;;;358.90;2329.60;;;;;;5035255;28;20456;-71
2024/01/06 10:17:54;;;;;;;23.95;16.45;;;359.00;2329.60;;;;;;5035241;28;20571;-67
2024/01/06 10:20:21;;;;;;;27.25;17.90;;;359.20;2329.60;;;;;;5035605;28;20459;-69
2024/01/06 10:22:47;;;;;;;27.50;16.50;;;384.00;2329.60;;;;;;5035130;28;20384;-68
2024/01/06 10:25:14;;;;;;;57.90;31.20;;;384.10;2329.60;;;;;;5035026;28;20511;-70
2024/01/06 10:27:41;;;;;;;27.48;14.90;;;384.90;2329.60;;;;;;5035674;28;20457;-72
2024/01/06 10:33:29;;;;;;;43.22;20.70;;;410.00;2355.20;;;;;;4993525;28;20025;-68
2024/01/06 10:35:55;;;;;;;46.90;25.60;;;410.00;2355.20;;;;;;4993416;28;20030;-67
2024/01/06 10:38:22;;;;;;;51.42;27.48;;;410.00;2355.20;;;;;;4994563;28;20559;-67
2024/01/06 10:41:02;;;;;;;38.40;20.70;;;409.80;2355.20;;;;;;4993835;28;20524;-67
2024/01/06 10:43:29;;;;;;;27.92;13.45;;;409.60;2355.20;;;;;;4993748;28;20477;-69
2024/01/06 10:46:04;;;;;;;26.80;15.75;;;384.80;2329.60;;;;;;4993845;28;20594;-69
2024/01/06 10:48:34;;;;;;;25.35;12.48;;;384.60;2329.60;;;;;;4993900;28;20577;-67
2024/01/06 10:51:02;;;;;;;22.58;13.10;;;384.50;2329.60;;;;;;4993754;28;20462;-77
2024/01/06 10:53:29;;;;;;;24.00;11.98;;;384.40;2329.60;;;;;;4993908;28;20497;-68
2024/01/06 10:55:58;;;;;;;38.95;17.92;;;384.00;2329.60;;;;;;4992810;28;20521;-68
2024/01/06 10:58:24;;;;;;;37.08;18.38;;;384.20;2329.60;;;;;;4993360;28;20453;-69
2024/01/06 11:00:55;;;;;;;38.63;17.95;;;384.00;2329.60;;;;;;5009066;28;20037;-68
2024/01/06 11:03:22;;;;;;;37.90;18.52;;;384.00;2329.60;;;;;;5033666;28;20468;-67
2024/01/06 11:05:49;;;;;;;37.78;17.45;;;359.30;2329.60;;;;;;5034879;28;20515;-67
2024/01/06 11:08:18;;;;;;;39.88;18.73;;;359.20;2329.60;;;;;;5034693;28;20487;-67
2024/01/06 11:10:46;;;;;;;35.35;19.98;;;359.10;2329.60;;;;;;5034412;28;20642;-70
2024/01/06 11:13:13;;;;;;;35.35;19.73;;;359.10;2329.60;;;;;;5034425;28;20421;-67
2024/01/06 11:15:45;;;;;;;30.00;17.98;;;359.00;2329.60;;;;;;5034737;28;20448;-68
2024/01/06 11:18:38;;;;;;;48.85;22.05;;;359.00;2329.60;;;;;;5034269;28;20558;-72
2024/01/06 11:21:24;;;;;;;65.53;34.30;;;358.90;2329.60;;;;;;5034784;28;20453;-68
2024/01/06 11:24:16;;;;;;;84.40;39.53;;;358.80;2329.60;;;;;;5033988;28;20486;-68
2024/01/06 11:26:49;;;;;;;72.13;33.42;;;358.80;2329.60;;;;;;5034712;28;20516;-69
2024/01/06 11:29:16;;;;;;;57.25;27.73;;;358.70;2329.60;;;;;;5034302;28;20036;-67
2024/01/06 11:31:43;;;;;;;42.42;24.98;;;358.60;2329.60;;;;;;5034311;28;20464;-82
2024/01/06 11:34:15;;;;;;;43.40;24.83;;;358.50;2329.60;;;;;;5034400;28;20469;-72
2024/01/06 11:36:44;;;;;;;51.90;29.85;;;358.50;2329.60;;;;;;5034533;28;20460;-69
2024/01/06 11:39:38;;;;;;;41.55;22.73;;;358.40;2329.60;;;;;;5034134;28;20473;-68
2024/01/06 11:42:04;;;;;;;29.08;16.60;;;358.40;2329.60;;;;;;5034851;28;20444;-70
2024/01/06 11:44:34;;;;;;;61.10;26.80;;;333.70;2329.60;;;;;;5035022;28;20033;-77
2024/01/06 11:47:00;;;;;;;47.38;22.30;;;333.70;2329.60;;;;;;5034658;28;20471;-67
2024/01/06 11:49:28;;;;;;;45.55;21.75;;;333.70;2329.60;;;;;;5016530;28;20037;-76
2024/01/06 11:51:54;;;;;;;39.47;19.77;;;333.70;2329.60;;;;;;5034373;28;20499;-80
2024/01/06 11:54:21;;;;;;;39.60;20.42;;;333.70;2329.60;;;;;;5034277;28;20468;-84
2024/01/06 11:56:48;;;;;;;55.65;29.42;;;333.60;2329.60;;;;;;5034726;28;20543;-67
2024/01/06 11:59:17;;;;;;;80.25;41.53;;;333.70;2329.60;;;;;;5034463;28;20503;-68
2024/01/06 12:01:43;;;;;;;92.25;46.50;;;333.70;2329.60;;;;;;5034266;28;20475;-81
2024/01/06 12:04:14;;;;;;;46.42;26.50;;;333.70;2329.60;;;;;;5035712;28;20476;-77
2024/01/06 12:06:41;;;;;;;106.63;50.35;;;333.70;2329.60;;;;;;5020881;28;20412;-82
2024/01/06 12:09:07;;;;;;;70.97;40.25;;;358.40;2329.60;;;;;;5037947;28;20464;-82
2024/01/06 12:11:33;;;;;;;120.72;57.20;;;358.40;2329.60;;;;;;5038113;28;20468;-71
2024/01/06 12:14:00;;;;;;;105.03;54.80;;;358.40;2329.60;;;;;;5038158;28;20518;-67
2024/01/06 12:16:28;;;;;;;67.97;37.45;;;358.40;2329.60;;;;;;5037349;28;20469;-76
2024/01/06 12:18:55;;;;;;;51.35;27.42;;;358.40;2329.60;;;;;;5037704;28;20499;-81
2024/01/06 12:21:24;;;;;;;79.10;36.10;;;358.40;2329.60;;;;;;5037342;28;20486;-74
2024/01/06 12:23:50;;;;;;;75.40;36.38;;;358.40;2329.60;;;;;;5037291;28;20554;-70
2024/01/06 12:26:19;;;;;;;69.25;37.35;;;333.70;2329.60;;;;;;5038022;28;20112;-79
2024/01/06 12:28:46;;;;;;;59.25;30.30;;;333.70;2329.60;;;;;;5038010;28;20464;-69
2024/01/06 12:34:35;;;;;;;61.30;32.92;;;333.70;2329.60;;;;;;5037769;28;20068;-74
2024/01/06 12:37:02;;;;;;;83.05;46.22;;;333.60;2329.60;;;;;;5037095;28;20472;-71
2024/01/06 12:39:32;;;;;;;49.65;29.73;;;333.60;2329.60;;;;;;5037840;28;20033;-66
2024/01/06 12:42:00;;;;;;;31.50;20.48;;;333.50;2329.60;;;;;;5036047;28;20034;-69
2024/01/06 12:44:27;;;;;;;40.85;25.10;;;333.60;2329.60;;;;;;5037604;28;20469;-67
2024/01/06 12:46:53;;;;;;;36.42;23.65;;;333.50;2329.60;;;;;;5037036;28;20480;-83
2024/01/06 12:49:22;;;;;;;61.15;33.92;;;333.50;2329.60;;;;;;5037436;28;20029;-83
2024/01/06 12:51:48;;;;;;;73.35;39.53;;;333.50;2329.60;;;;;;5037073;28;20543;-67
2024/01/06 12:54:14;;;;;;;69.10;40.95;;;333.50;2329.60;;;;;;5036781;28;20518;-71